This is the latest recevied weather packets stored in our database for station/object AB1AU. If no packets are shown the sender has not sent any weather packets the latest 10 day(s).
| Time | Temp. | Humidity | Pressure | Rain* | Wind** | Luminosity | Snow |
|---|---|---|---|---|---|---|---|
| 1777394988 | 18.33° C | 36% | 1023.3 hPa | 0 mm | - | 298 W/m² | - |
| 1777394684 | 17.78° C | 38% | 1023.5 hPa | 0 mm | - | 151 W/m² | - |
| 1777394380 | 18.33° C | 36% | 1023.6 hPa | 0 mm | - | 371 W/m² | - |
| 1777394077 | 18.33° C | 38% | 1023.4 hPa | 0 mm | - | 419 W/m² | - |
| 1777393773 | 17.78° C | 41% | 1023.5 hPa | 0 mm | - | 230 W/m² | - |
| 1777393472 | 17.78° C | 41% | 1023.7 hPa | 0 mm | - | 128 W/m² | - |
| 1777393169 | 17.78° C | 40% | 1023.6 hPa | 0 mm | - | 368 W/m² | - |
| 1777392865 | 17.78° C | 39% | 1023.6 hPa | 0 mm | - | 294 W/m² | - |
| 1777392561 | 17.78° C | 41% | 1023.7 hPa | 0 mm | - | 326 W/m² | - |
| 1777392257 | 17.22° C | 42% | 1024 hPa | 0 mm | - | 385 W/m² | - |
| 1777391952 | 16.67° C | 44% | 1023.9 hPa | 0 mm | - | 321 W/m² | - |
| 1777391647 | 16.67° C | 46% | 1023.9 hPa | 0 mm | - | 322 W/m² | - |
| 1777391344 | 16.67° C | 47% | 1024 hPa | 0 mm | - | 264 W/m² | - |
| 1777391041 | 16.11° C | 46% | 1024.2 hPa | 0 mm | - | 363 W/m² | - |
| 1777390736 | 15.56° C | 45% | 1024.4 hPa | 0 mm | - | 99 W/m² | - |
| 1777390433 | 15.56° C | 45% | 1024.4 hPa | 0 mm | - | 292 W/m² | - |
| 1777390129 | 15° C | 48% | 1024.6 hPa | 0 mm | - | 46 W/m² | - |
| 1777389826 | 15° C | 46% | 1024.5 hPa | 0 mm | - | 122 W/m² | - |
| 1777389524 | 15° C | 46% | 1024.5 hPa | 0 mm | - | 46 W/m² | - |
| 1777389220 | 15° C | 49% | 1024.5 hPa | 0 mm | - | 51 W/m² | - |
| 1777388918 | 14.44° C | 47% | 1024.7 hPa | 0 mm | - | 121 W/m² | - |
| 1777388614 | 14.44° C | 47% | 1024.8 hPa | 0 mm | - | 399 W/m² | - |
| 1777388311 | 13.89° C | 48% | 1024.8 hPa | 0 mm | - | 255 W/m² | - |
| 1777388010 | 13.89° C | 48% | 1024.9 hPa | 0 mm | - | 135 W/m² | - |
| 1777387707 | 13.89° C | 48% | 1024.7 hPa | 0 mm | - | 181 W/m² | - |
* Rain latest hour (hover to see other rain measurements)
** Current wind speed in m/s (hover to see current wind gust speed)